Kaleetan — WY2512 — position and weather

sailwx.info

Track history (hours):
 
Tides and Currents Weather Stations Pressure Air Temp Water Temp Dewpoint Dewpoint Depression Visibility Wind Speed Wind Dir Waves Ship Positions

Kaleetan

Owner: WASHINGTON, STATE OF; Department of Transportation, OLYMPIA, WA. More information available from US FCC via Universal Licensing System and Coast Guard Vessel Documentation Center.

Last reported at 2018-Feb-19 14:00 UTC. Time now 2018-Feb-19 14:07 UTC.
Position N 47°36' W 122°20'.

Length 116 m; draft 5.6 m.

Type: Passenger vessel. MMSI: 366772990.

Date/timePositionNaut miles runAvg speedWind from/ knotsBaromVisibWave heightAir tempDewpointWater temp
2018-Feb-19 14:00N 47°36' W 122°20'4 7.4
2018-Feb-19 13:30N 47°35' W 122°26'612.6
2018-Feb-19 13:00N 47°35' W 122°35'2 3.8
2018-Feb-19 12:30N 47°34' W 122°37'0 0.0
2018-Feb-19 12:00N 47°34' W 122°37'0 0.0
2018-Feb-19 11:30N 47°34' W 122°37'0 0.0
2018-Feb-19 11:00N 47°34' W 122°37'0 0.0
2018-Feb-19 10:30N 47°34' W 122°37'0 0.0
2018-Feb-19 10:00N 47°34' W 122°37'0 0.0
2018-Feb-19 09:30N 47°34' W 122°37'0 0.0
2018-Feb-19 09:00N 47°34' W 122°37'0 0.0
2018-Feb-19 08:29N 47°34' W 122°37'0 0.0
2018-Feb-19 08:01N 47°34' W 122°37'0 0.0
2018-Feb-19 07:31N 47°34' W 122°37'0 0.0
2018-Feb-19 07:00N 47°34' W 122°37'0 0.0
2018-Feb-19 06:30N 47°34' W 122°37'0 0.4
2018-Feb-19 06:01N 47°34' W 122°37'611.5
2018-Feb-19 05:31N 47°35' W 122°29'611.6
2018-Feb-19 05:00N 47°36' W 122°20'612.5
2018-Feb-19 04:31N 47°34' W 122°29'611.1
2018-Feb-19 03:59N 47°34' W 122°38'3 6.8
2018-Feb-19 03:30N 47°36' W 122°33'713.3
2018-Feb-19 03:01N 47°36' W 122°24'2 4.1
2018-Feb-19 02:28N 47°36' W 122°20'614.1
2018-Feb-19 02:00N 47°34' W 122°29'510.8
2018-Feb-19 01:30N 47°34' W 122°38'2 4.0
2018-Feb-19 01:00N 47°35' W 122°35'713.2
2018-Feb-19 00:30N 47°36' W 122°25'3 6.7
2018-Feb-19 00:00N 47°36' W 122°20'713.0
2018-Feb-18 23:30N 47°34' W 122°30'510.4
2018-Feb-18 23:00N 47°34' W 122°38'0 0.0
2018-Feb-18 22:30N 47°34' W 122°38'5 9.4
2018-Feb-18 22:00N 47°34' W 122°31'713.9
2018-Feb-18 21:29N 47°36' W 122°20'4 7.3
2018-Feb-18 21:00N 47°36' W 122°26'713.1
2018-Feb-18 20:30N 47°35' W 122°35'1 2.0
2018-Feb-18 20:00N 47°34' W 122°36'612.4
2018-Feb-18 19:31N 47°35' W 122°27'5 8.6
2018-Feb-18 18:57N 47°36' W 122°20'3 6.7
2018-Feb-18 18:30N 47°36' W 122°25'714.0
2018-Feb-18 18:00N 47°35' W 122°35'2 4.0
2018-Feb-18 17:31N 47°34' W 122°38'510.8
2018-Feb-18 17:01N 47°34' W 122°30'611.8
2018-Feb-18 16:28N 47°36' W 122°20'3 6.5
2018-Feb-18 16:00N 47°36' W 122°25'713.9
2018-Feb-18 15:30N 47°35' W 122°35'2 3.8
2018-Feb-18 14:59N 47°34' W 122°38'510.0
2018-Feb-18 14:30N 47°34' W 122°30'712.3
2018-Feb-18 13:56N 47°36' W 122°20'1 1.4
2018-Feb-18 13:30N 47°36' W 122°21'815.2
2018-Feb-18 13:00N 47°35' W 122°32'4 7.1
2018-Feb-18 12:30N 47°34' W 122°37'0 0.0
2018-Feb-18 11:59N 47°34' W 122°37'0 0.0
2018-Feb-18 11:30N 47°34' W 122°37'0 0.0
2018-Feb-18 11:00N 47°34' W 122°37'0 0.0
2018-Feb-18 10:30N 47°34' W 122°37'0 0.0
2018-Feb-18 10:00N 47°34' W 122°37'0 0.0
2018-Feb-18 09:30N 47°34' W 122°37'0 0.0
2018-Feb-18 09:00N 47°34' W 122°37'0 0.0
2018-Feb-18 08:30N 47°34' W 122°37'0 0.0
2018-Feb-18 08:00N 47°34' W 122°37'0 0.0
2018-Feb-18 07:31N 47°34' W 122°37'0 0.0
2018-Feb-18 07:01N 47°34' W 122°37'0 0.0
2018-Feb-18 06:30N 47°34' W 122°37'0 0.3
2018-Feb-18 06:00N 47°34' W 122°37'510.8
2018-Feb-18 05:30N 47°34' W 122°29'6 8.9
2018-Feb-18 04:48N 47°36' W 122°21'413.3
2018-Feb-18 04:30N 47°35' W 122°26'814.0
2018-Feb-18 03:58N 47°34' W 122°37'2 3.6
2018-Feb-18 03:30N 47°35' W 122°35'612.9
2018-Feb-18 03:00N 47°35' W 122°26'4 7.2
2018-Feb-18 02:30N 47°36' W 122°20'612.5
2018-Feb-18 02:01N 47°34' W 122°29'611.4
2018-Feb-18 01:30N 47°34' W 122°38'2 3.1
2018-Feb-18 01:00N 47°34' W 122°35'713.4
2018-Feb-18 00:30N 47°35' W 122°26'4 7.2
2018-Feb-18 00:00N 47°36' W 122°20'612.2
2018-Feb-17 23:30N 47°34' W 122°29'611.5
2018-Feb-17 23:00N 47°34' W 122°38'0 0.0
2018-Feb-17 22:30N 47°34' W 122°38'5 9.5
2018-Feb-17 22:01N 47°34' W 122°31'714.1
2018-Feb-17 21:30N 47°36' W 122°20'4 7.5
2018-Feb-17 21:00N 47°35' W 122°26'713.6
2018-Feb-17 20:30N 47°34' W 122°36'0 0.7
2018-Feb-17 19:59N 47°34' W 122°35'612.1
2018-Feb-17 19:31N 47°35' W 122°27'4 8.8
2018-Feb-17 19:00N 47°36' W 122°20'3 6.1
2018-Feb-17 18:31N 47°36' W 122°25'714.0
2018-Feb-17 18:00N 47°35' W 122°35'2 3.5
2018-Feb-17 17:30N 47°33' W 122°37'510.7
2018-Feb-17 17:01N 47°34' W 122°29'612.4
2018-Feb-17 16:30N 47°36' W 122°20'3 6.7
2018-Feb-17 16:00N 47°36' W 122°25'713.6
2018-Feb-17 15:30N 47°35' W 122°35'2 3.5
2018-Feb-17 15:00N 47°34' W 122°38'510.5
2018-Feb-17 14:30N 47°34' W 122°30'713.0
2018-Feb-17 14:00N 47°36' W 122°20'3 6.1
2018-Feb-17 13:31N 47°36' W 122°25'713.8
2018-Feb-17 13:00N 47°35' W 122°35'2 4.1
2018-Feb-17 12:31N 47°34' W 122°37'0 0.0
2018-Feb-17 11:58N 47°34' W 122°37'0 0.0
2018-Feb-17 11:30N 47°34' W 122°37'0 0.0
2018-Feb-17 11:00N 47°34' W 122°37'0 0.0
2018-Feb-17 10:30N 47°34' W 122°37'0 0.0
2018-Feb-17 10:00N 47°34' W 122°37'0 0.0
2018-Feb-17 09:29N 47°34' W 122°37'0 0.0
2018-Feb-17 09:00N 47°34' W 122°37'0 0.0
2018-Feb-17 08:29N 47°34' W 122°37'0 0.0
2018-Feb-17 08:00N 47°34' W 122°37'0 0.0
2018-Feb-17 07:30N 47°34' W 122°37'0 0.0
2018-Feb-17 07:00N 47°34' W 122°37'0 0.0
2018-Feb-17 06:30N 47°34' W 122°37'0 0.0
2018-Feb-17 06:00N 47°34' W 122°37'510.9
2018-Feb-17 05:30N 47°34' W 122°29'612.3
2018-Feb-17 04:59N 47°36' W 122°20'4 9.3
2018-Feb-17 04:30N 47°35' W 122°27'713.6
2018-Feb-17 03:58N 47°34' W 122°37'2 5.2
2018-Feb-17 03:30N 47°35' W 122°35'612.9
2018-Feb-17 03:01N 47°36' W 122°25'3 6.2
2018-Feb-17 02:30N 47°36' W 122°20'611.8
2018-Feb-17 02:01N 47°35' W 122°29'611.9
2018-Feb-17 01:30N 47°34' W 122°38'2 3.8
2018-Feb-17 01:00N 47°35' W 122°35'713.9
2018-Feb-17 00:30N 47°36' W 122°25'3 6.2
2018-Feb-17 00:00N 47°36' W 122°20'612.5
2018-Feb-16 23:30N 47°34' W 122°29'610.9
2018-Feb-16 22:59N 47°34' W 122°38'0 0.0
2018-Feb-16 22:30N 47°34' W 122°38'4 8.0
2018-Feb-16 22:01N 47°34' W 122°32'815.6
2018-Feb-16 21:30N 47°36' W 122°20'4 7.6
2018-Feb-16 21:00N 47°35' W 122°26'713.5
2018-Feb-16 20:30N 47°34' W 122°36'0 0.1
2018-Feb-16 20:00N 47°34' W 122°36'612.0
2018-Feb-16 19:30N 47°35' W 122°27'5 8.7
2018-Feb-16 18:59N 47°36' W 122°20'3 6.3
2018-Feb-16 18:30N 47°36' W 122°25'714.1
2018-Feb-16 18:00N 47°35' W 122°35'2 3.9
2018-Feb-16 17:30N 47°33' W 122°37'611.4
2018-Feb-16 17:00N 47°34' W 122°29'610.1
2018-Feb-16 16:25N 47°36' W 122°20'3 7.3
2018-Feb-16 16:00N 47°36' W 122°25'713.9
2018-Feb-16 15:30N 47°35' W 122°35'2 4.1
2018-Feb-16 15:00N 47°34' W 122°38'510.7
2018-Feb-16 14:31N 47°34' W 122°30'713.1
2018-Feb-16 14:00N 47°36' W 122°20'3 6.6
2018-Feb-16 13:30N 47°36' W 122°25'713.3
2018-Feb-16 13:00N 47°35' W 122°35'2 3.6
2018-Feb-16 12:30N 47°34' W 122°37'0 0.0
2018-Feb-16 12:01N 47°34' W 122°37'0 0.0
2018-Feb-16 11:30N 47°34' W 122°37'0 0.0
2018-Feb-16 11:00N 47°34' W 122°37'0 0.0
2018-Feb-16 10:31N 47°34' W 122°37'0 0.0
2018-Feb-16 10:01N 47°34' W 122°37'4 7.1
2018-Feb-16 09:31N 47°36' W 122°33'714.6
2018-Feb-16 09:01N 47°36' W 122°22'2 4.7
2018-Feb-16 08:30N 47°35' W 122°26'713.3
2018-Feb-16 08:00N 47°34' W 122°35'2 3.1
2018-Feb-16 07:30N 47°34' W 122°37'0 0.0
2018-Feb-16 07:00N 47°34' W 122°37'0 0.0
2018-Feb-16 06:31N 47°34' W 122°37'0 0.4
2018-Feb-16 06:00N 47°34' W 122°37'611.3
2018-Feb-16 05:30N 47°35' W 122°29'610.1
2018-Feb-16 04:55N 47°36' W 122°20'511.3
2018-Feb-16 04:30N 47°35' W 122°27'713.0
2018-Feb-16 03:59N 47°33' W 122°37'2 4.1
2018-Feb-16 03:30N 47°35' W 122°35'612.8
2018-Feb-16 03:00N 47°35' W 122°25'4 6.6
2018-Feb-16 02:29N 47°36' W 122°20'612.6
2018-Feb-16 02:00N 47°34' W 122°29'611.8
2018-Feb-16 01:30N 47°34' W 122°38'3 5.2
2018-Feb-16 01:00N 47°35' W 122°34'713.7
2018-Feb-16 00:30N 47°36' W 122°24'3 5.2
2018-Feb-16 00:00N 47°36' W 122°20'613.0
2018-Feb-15 23:31N 47°34' W 122°29'510.9
2018-Feb-15 23:00N 47°34' W 122°38'0 0.0
2018-Feb-15 22:29N 47°34' W 122°38'4 8.4
2018-Feb-15 22:00N 47°34' W 122°32'815.4
2018-Feb-15 21:30N 47°36' W 122°20'3 6.5
2018-Feb-15 21:01N 47°36' W 122°25'713.3
2018-Feb-15 20:30N 47°35' W 122°35'1 2.7
2018-Feb-15 20:00N 47°34' W 122°36'612.4
2018-Feb-15 19:30N 47°35' W 122°27'5 9.4
2018-Feb-15 19:00N 47°36' W 122°20'3 6.0
2018-Feb-15 18:31N 47°36' W 122°25'713.7
2018-Feb-15 18:00N 47°35' W 122°35'2 4.3
2018-Feb-15 17:30N 47°34' W 122°37'510.6
2018-Feb-15 17:00N 47°34' W 122°30'712.9
2018-Feb-15 16:30N 47°36' W 122°20'3 6.3
2018-Feb-15 16:00N 47°36' W 122°25'713.9
2018-Feb-15 15:30N 47°35' W 122°35'2 3.7
2018-Feb-15 15:00N 47°34' W 122°38'510.7
2018-Feb-15 14:30N 47°34' W 122°30'612.9
2018-Feb-15 14:00N 47°36' W 122°20'4 7.2
2018-Feb-15 13:30N 47°35' W 122°26'612.9
2018-Feb-15 13:00N 47°35' W 122°35'2 3.1
2018-Feb-15 12:24N 47°34' W 122°37'0 0.0
2018-Feb-15 12:00N 47°34' W 122°37'0 0.0
2018-Feb-15 11:30N 47°34' W 122°37'0 0.0
2018-Feb-15 11:00N 47°34' W 122°37'0 0.0
2018-Feb-15 10:30N 47°34' W 122°37'0 0.0
2018-Feb-15 10:00N 47°34' W 122°37'3 6.1
2018-Feb-15 09:30N 47°35' W 122°34'714.8
2018-Feb-15 09:00N 47°36' W 122°23'2 3.2
2018-Feb-15 08:30N 47°36' W 122°25'713.2
2018-Feb-15 08:00N 47°35' W 122°35'2 4.5
2018-Feb-15 07:31N 47°34' W 122°37'0 0.0
2018-Feb-15 07:01N 47°34' W 122°37'0 0.0
2018-Feb-15 06:30N 47°34' W 122°37'0 0.0
2018-Feb-15 06:01N 47°34' W 122°37'510.7
2018-Feb-15 05:30N 47°34' W 122°30'612.7
2018-Feb-15 05:00N 47°36' W 122°20'4 8.6
2018-Feb-15 04:30N 47°35' W 122°27'713.7
2018-Feb-15 03:59N 47°33' W 122°37'2 3.8
2018-Feb-15 03:30N 47°35' W 122°35'612.7
2018-Feb-15 03:01N 47°35' W 122°26'4 7.3
2018-Feb-15 02:31N 47°36' W 122°20'612.2
2018-Feb-15 02:00N 47°34' W 122°29'611.6
2018-Feb-15 01:30N 47°34' W 122°38'2 3.4
2018-Feb-15 01:00N 47°34' W 122°35'713.6
2018-Feb-15 00:30N 47°35' W 122°25'3 6.6
2018-Feb-15 00:00N 47°36' W 122°20'612.4
2018-Feb-14 23:30N 47°34' W 122°29'611.4
2018-Feb-14 23:00N 47°34' W 122°38'0 0.0
2018-Feb-14 22:30N 47°34' W 122°38'4 7.7
2018-Feb-14 22:00N 47°34' W 122°32'815.9
2018-Feb-14 21:30N 47°36' W 122°20'3 7.0
2018-Feb-14 21:01N 47°35' W 122°25'712.9
2018-Feb-14 20:30N 47°35' W 122°35'1 1.8
2018-Feb-14 20:00N 47°34' W 122°36'713.2
2018-Feb-14 19:30N 47°35' W 122°27'4 8.3
2018-Feb-14 19:00N 47°36' W 122°20'3 6.8
2018-Feb-14 18:30N 47°36' W 122°25'713.5
2018-Feb-14 18:00N 47°34' W 122°35'2 3.4
2018-Feb-14 17:31N 47°34' W 122°37'611.4
2018-Feb-14 17:00N 47°34' W 122°29'611.9
2018-Feb-14 16:30N 47°36' W 122°20'3 5.9
2018-Feb-14 16:00N 47°36' W 122°25'714.0
2018-Feb-14 15:30N 47°35' W 122°35'2 4.2
2018-Feb-14 15:01N 47°34' W 122°38'611.1
2018-Feb-14 14:31N 47°34' W 122°29'612.4
2018-Feb-14 14:00N 47°36' W 122°20'3 6.9
2018-Feb-14 13:31N 47°36' W 122°25'713.1
2018-Feb-14 13:00N 47°35' W 122°35'2 3.8
2018-Feb-14 12:30N 47°34' W 122°37'0 0.0
2018-Feb-14 11:59N 47°34' W 122°37'0 0.0
2018-Feb-14 11:30N 47°34' W 122°37'0 0.0
2018-Feb-14 11:00N 47°34' W 122°37'0 0.0
2018-Feb-14 10:30N 47°34' W 122°37'0 0.0
2018-Feb-14 10:00N 47°34' W 122°37'4 7.5
2018-Feb-14 09:31N 47°35' W 122°32'714.9
2018-Feb-14 09:00N 47°36' W 122°21'3 6.6
2018-Feb-14 08:30N 47°35' W 122°26'612.6
2018-Feb-14 08:00N 47°34' W 122°35'2 3.1
2018-Feb-14 07:30N 47°34' W 122°37'0 0.0
2018-Feb-14 07:00N 47°34' W 122°37'0 0.0
2018-Feb-14 06:30N 47°34' W 122°37'0 0.0
2018-Feb-14 06:00N 47°34' W 122°37'510.8
2018-Feb-14 05:31N 47°34' W 122°30'611.4
2018-Feb-14 04:57N 47°36' W 122°20'4 9.9
2018-Feb-14 04:30N 47°35' W 122°27'713.5
2018-Feb-14 04:00N 47°34' W 122°37'2 3.1
2018-Feb-14 03:30N 47°35' W 122°35'612.9
2018-Feb-14 03:00N 47°35' W 122°26'4 6.7
2018-Feb-14 02:28N 47°36' W 122°20'612.5
2018-Feb-14 02:01N 47°34' W 122°29'612.0
2018-Feb-14 01:30N 47°34' W 122°38'2 3.6
2018-Feb-14 01:00N 47°35' W 122°35'713.5
2018-Feb-14 00:30N 47°36' W 122°25'3 6.4
2018-Feb-13 23:59N 47°36' W 122°20'613.8
2018-Feb-13 23:30N 47°34' W 122°30'510.4
2018-Feb-13 22:59N 47°34' W 122°38'0 0.0
2018-Feb-13 22:29N 47°34' W 122°38'4 8.9
2018-Feb-13 22:00N 47°34' W 122°31'814.9
2018-Feb-13 21:30N 47°36' W 122°20'510.9
2018-Feb-13 21:00N 47°35' W 122°28'612.7
2018-Feb-13 20:30N 47°34' W 122°37'4 7.2
2018-Feb-13 20:00N 47°36' W 122°33'4 7.5
2018-Feb-13 19:30N 47°35' W 122°27'5 9.8
2018-Feb-13 19:00N 47°36' W 122°20'3 6.9
2018-Feb-13 18:30N 47°36' W 122°25'713.2
2018-Feb-13 18:00N 47°35' W 122°35'0 0.9
2018-Feb-13 17:30N 47°34' W 122°36'4 8.7
2018-Feb-13 17:00N 47°34' W 122°29'611.7
2018-Feb-13 16:29N 47°36' W 122°20'3 6.9
2018-Feb-13 16:00N 47°36' W 122°25'713.5
2018-Feb-13 15:30N 47°35' W 122°35'2 3.7
2018-Feb-13 15:01N 47°34' W 122°37'5 9.9
2018-Feb-13 14:30N 47°34' W 122°30'713.7
2018-Feb-13 14:00N 47°36' W 122°20'4 7.5
2018-Feb-13 13:30N 47°35' W 122°26'713.2
2018-Feb-13 13:00N 47°34' W 122°36'1 2.6
2018-Feb-13 12:30N 47°34' W 122°37'0 0.0
2018-Feb-13 12:00N 47°34' W 122°37'0 0.0
2018-Feb-13 11:30N 47°34' W 122°37'0 0.0
2018-Feb-13 11:00N 47°34' W 122°37'0 0.0
2018-Feb-13 10:30N 47°34' W 122°37'0 0.0
2018-Feb-13 09:59N 47°34' W 122°37'2 4.4
2018-Feb-13 09:30N 47°35' W 122°35'715.0
2018-Feb-13 09:00N 47°36' W 122°24'1 1.4
2018-Feb-13 08:30N 47°36' W 122°23'713.3
2018-Feb-13 08:00N 47°35' W 122°33'4 7.2
2018-Feb-13 07:30N 47°34' W 122°37'0 0.0
2018-Feb-13 07:00N 47°34' W 122°37'0 0.0
2018-Feb-13 06:29N 47°34' W 122°37'0 0.0
2018-Feb-13 06:00N 47°34' W 122°37'510.6
2018-Feb-13 05:31N 47°34' W 122°30'7 9.8
2018-Feb-13 04:50N 47°36' W 122°20'412.8
2018-Feb-13 04:31N 47°35' W 122°27'713.7
2018-Feb-13 04:00N 47°34' W 122°37'1 3.0
2018-Feb-13 03:30N 47°35' W 122°35'612.9
2018-Feb-13 03:00N 47°35' W 122°26'4 7.2
2018-Feb-13 02:30N 47°36' W 122°20'612.3
2018-Feb-13 02:00N 47°34' W 122°29'611.5
2018-Feb-13 01:30N 47°34' W 122°38'2 3.6
2018-Feb-13 01:00N 47°35' W 122°35'713.0
2018-Feb-13 00:30N 47°35' W 122°26'4 7.2
2018-Feb-13 00:00N 47°36' W 122°20'612.6
2018-Feb-12 23:31N 47°34' W 122°29'611.2
2018-Feb-12 23:00N 47°34' W 122°38'0 0.0
2018-Feb-12 22:30N 47°34' W 122°38'4 8.1
2018-Feb-12 22:01N 47°34' W 122°32'815.1
2018-Feb-12 21:30N 47°36' W 122°20'3 6.7
2018-Feb-12 21:00N 47°35' W 122°25'713.5
2018-Feb-12 20:30N 47°35' W 122°35'1 1.7
2018-Feb-12 19:57N 47°34' W 122°36'613.2
2018-Feb-12 19:30N 47°35' W 122°27'5 9.7
2018-Feb-12 19:00N 47°36' W 122°20'4 7.5
2018-Feb-12 18:31N 47°35' W 122°26'612.8
2018-Feb-12 18:00N 47°34' W 122°35'2 3.4
2018-Feb-12 17:30N 47°34' W 122°38'510.7
2018-Feb-12 17:00N 47°34' W 122°30'711.5
2018-Feb-12 16:26N 47°36' W 122°20'4 8.2
2018-Feb-12 16:00N 47°35' W 122°25'713.1
2018-Feb-12 15:30N 47°35' W 122°35'2 3.5
2018-Feb-12 15:00N 47°34' W 122°37'4 8.9
2018-Feb-12 14:30N 47°34' W 122°31'714.8
2018-Feb-12 14:00N 47°36' W 122°20'3 6.5
2018-Feb-12 13:30N 47°36' W 122°25'713.6
2018-Feb-12 13:01N 47°35' W 122°35'2 3.7
2018-Feb-12 12:30N 47°34' W 122°37'0 0.0
2018-Feb-12 12:00N 47°34' W 122°37'0 0.0
2018-Feb-12 11:31N 47°34' W 122°37'0 0.0
2018-Feb-12 11:00N 47°34' W 122°37'0 0.0
2018-Feb-12 10:29N 47°34' W 122°37'0 0.0
2018-Feb-12 10:00N 47°34' W 122°37'3 5.2
2018-Feb-12 09:30N 47°35' W 122°34'714.6
2018-Feb-12 09:00N 47°36' W 122°24'1 1.9
2018-Feb-12 08:30N 47°36' W 122°22'714.1
2018-Feb-12 08:00N 47°35' W 122°33'4 7.1
2018-Feb-12 07:31N 47°34' W 122°37'4 7.9
2018-Feb-12 07:00N 47°34' W 122°32'814.6
2018-Feb-12 06:28N 47°36' W 122°20'0 0.0
2018-Feb-12 06:00N 47°36' W 122°20'612.6
2018-Feb-12 05:31N 47°34' W 122°29'610.6
2018-Feb-12 04:59N 47°34' W 122°38'3 7.4
2018-Feb-12 04:30N 47°36' W 122°33'713.4
2018-Feb-12 04:01N 47°36' W 122°23'1 2.6
2018-Feb-12 03:30N 47°36' W 122°21'815.1
2018-Feb-12 03:00N 47°35' W 122°33'4 7.2
2018-Feb-12 02:30N 47°34' W 122°38'4 8.3
2018-Feb-12 02:00N 47°34' W 122°31'814.9
2018-Feb-12 01:30N 47°36' W 122°20'2 4.7
2018-Feb-12 01:00N 47°36' W 122°24'713.4
2018-Feb-12 00:30N 47°35' W 122°34'3 6.0
2018-Feb-12 00:00N 47°34' W 122°38'4 7.4
2018-Feb-11 23:31N 47°35' W 122°32'815.4
2018-Feb-11 23:00N 47°36' W 122°21'2 3.5
2018-Feb-11 22:30N 47°36' W 122°24'713.9
2018-Feb-11 21:59N 47°35' W 122°34'3 5.4
2018-Feb-11 21:31N 47°34' W 122°38'4 7.8
2018-Feb-11 21:00N 47°34' W 122°32'815.7
2018-Feb-11 20:30N 47°36' W 122°21'2 3.8
2018-Feb-11 20:00N 47°36' W 122°23'713.3
2018-Feb-11 19:31N 47°36' W 122°33'3 6.8
2018-Feb-11 19:00N 47°34' W 122°38'611.5
2018-Feb-11 18:30N 47°34' W 122°29'612.0
2018-Feb-11 17:59N 47°36' W 122°20'2 4.5
2018-Feb-11 17:30N 47°36' W 122°24'713.6
2018-Feb-11 16:58N 47°35' W 122°35'2 5.1
2018-Feb-11 16:30N 47°34' W 122°38'510.3
2018-Feb-11 16:00N 47°34' W 122°30'712.6
2018-Feb-11 15:28N 47°36' W 122°20'3 7.4
2018-Feb-11 15:00N 47°35' W 122°25'713.5
2018-Feb-11 14:30N 47°34' W 122°36'1 2.9
2018-Feb-11 14:00N 47°34' W 122°37'0 0.0
2018-Feb-11 13:25N 47°34' W 122°37'0 0.0
2018-Feb-11 12:54N 47°34' W 122°37'0 0.0
2018-Feb-11 12:21N 47°34' W 122°37'0 0.0
2018-Feb-11 11:58N 47°34' W 122°37'0 0.0
2018-Feb-11 11:29N 47°34' W 122°37'0 0.0
2018-Feb-11 11:00N 47°34' W 122°37'0 0.0
2018-Feb-11 10:30N 47°34' W 122°37'0 0.0
2018-Feb-11 10:00N 47°34' W 122°37'0 0.0
2018-Feb-11 09:30N 47°34' W 122°37'0 0.0
2018-Feb-11 09:00N 47°34' W 122°37'0 0.0
2018-Feb-11 08:30N 47°34' W 122°37'0 0.0
2018-Feb-11 07:59N 47°34' W 122°37'0 0.0
2018-Feb-11 07:30N 47°34' W 122°37'0 0.0
2018-Feb-11 06:58N 47°34' W 122°37'0 0.0
2018-Feb-11 06:29N 47°34' W 122°37'0 0.0
2018-Feb-11 06:00N 47°34' W 122°37'612.0
2018-Feb-11 05:30N 47°35' W 122°29'611.4
2018-Feb-11 05:00N 47°36' W 122°20'5 9.5
2018-Feb-11 04:30N 47°35' W 122°27'712.8
2018-Feb-11 03:59N 47°34' W 122°37'1 2.7
2018-Feb-11 03:30N 47°34' W 122°35'713.7
2018-Feb-11 03:00N 47°36' W 122°25'3 6.5
2018-Feb-11 02:30N 47°36' W 122°20'612.9
2018-Feb-11 02:00N 47°34' W 122°29'610.6
2018-Feb-11 01:29N 47°34' W 122°38'2 4.4
2018-Feb-11 01:00N 47°35' W 122°35'612.9
2018-Feb-11 00:30N 47°36' W 122°25'3 6.8
2018-Feb-11 00:00N 47°36' W 122°20'612.5
2018-Feb-10 23:30N 47°34' W 122°29'611.3
2018-Feb-10 23:00N 47°34' W 122°38'0 0.0
2018-Feb-10 22:30N 47°34' W 122°38'4 8.5
2018-Feb-10 22:00N 47°34' W 122°31'814.0
2018-Feb-10 21:28N 47°36' W 122°20'4 7.8
2018-Feb-10 21:00N 47°35' W 122°25'713.4
2018-Feb-10 20:30N 47°34' W 122°36'0 0.5
2018-Feb-10 19:57N 47°35' W 122°35'612.7
2018-Feb-10 19:30N 47°35' W 122°27'4 7.6
2018-Feb-10 18:55N 47°36' W 122°20'4 8.6
2018-Feb-10 18:31N 47°35' W 122°26'713.1
2018-Feb-10 18:00N 47°34' W 122°35'2 3.0
2018-Feb-10 17:29N 47°34' W 122°37'510.9
2018-Feb-10 17:01N 47°34' W 122°30'7 9.3
2018-Feb-10 16:18N 47°36' W 122°20'413.2
2018-Feb-10 16:00N 47°35' W 122°26'713.4
2018-Feb-10 15:27N 47°33' W 122°37'1 1.2
2018-Feb-10 14:58N 47°34' W 122°38'4 9.4
2018-Feb-10 14:31N 47°34' W 122°31'7 9.5
2018-Feb-10 13:44N 47°36' W 122°21'315.3
2018-Feb-10 13:30N 47°36' W 122°25'713.1
2018-Feb-10 12:58N 47°34' W 122°36'1 2.5
2018-Feb-10 12:27N 47°34' W 122°37'0 0.0
2018-Feb-10 11:55N 47°34' W 122°37'0 0.0
2018-Feb-10 11:30N 47°34' W 122°37'0 0.0
2018-Feb-10 11:00N 47°34' W 122°37'0 0.0
2018-Feb-10 10:30N 47°34' W 122°37'0 0.0
2018-Feb-10 10:00N 47°34' W 122°37'0 0.0
2018-Feb-10 09:18N 47°34' W 122°37'0 0.0
2018-Feb-10 09:00N 47°34' W 122°37'0 0.0
2018-Feb-10 08:30N 47°34' W 122°37'0 0.0
2018-Feb-10 07:58N 47°34' W 122°37'0 0.0
2018-Feb-10 07:29N 47°34' W 122°37'0 0.0
2018-Feb-10 07:00N 47°34' W 122°37'0 0.0
2018-Feb-10 06:30N 47°34' W 122°37'0 0.0
2018-Feb-10 06:00N 47°34' W 122°37'510.7
2018-Feb-10 05:30N 47°34' W 122°30'710.8
2018-Feb-10 04:54N 47°36' W 122°20'511.8
2018-Feb-10 04:31N 47°35' W 122°27'612.6
2018-Feb-10 03:59N 47°34' W 122°36'1 1.8
2018-Feb-10 03:30N 47°34' W 122°36'713.8
2018-Feb-10 03:00N 47°35' W 122°26'4 6.7
2018-Feb-10 02:28N 47°36' W 122°20'612.2
2018-Feb-10 02:01N 47°34' W 122°28'612.1
2018-Feb-10 01:29N 47°34' W 122°38'2 3.1
2018-Feb-10 01:00N 47°34' W 122°35'613.1
2018-Feb-10 00:30N 47°35' W 122°26'4 7.6
2018-Feb-10 00:00N 47°36' W 122°20'611.8
2018-Feb-09 23:30N 47°34' W 122°29'611.7
2018-Feb-09 23:00N 47°34' W 122°38'0 0.0
2018-Feb-09 22:45N 47°34' W 122°38'0 0.0
2018-Feb-09 22:30N 47°34' W 122°38'9 5.8
2018-Feb-09 21:01N 47°36' W 122°25'0 0.1
2018-Feb-09 18:30N 47°36' W 122°25'713.1
2018-Feb-09 18:01N 47°35' W 122°35'0 0.1
2018-Feb-09 15:30N 47°35' W 122°35'2 3.6
2018-Feb-09 15:00N 47°34' W 122°38'4 8.8
2018-Feb-09 14:30N 47°34' W 122°31'  
Track history (hours):
 
Tides and Currents Weather Stations Pressure Air Temp Water Temp Dewpoint Dewpoint Depression Visibility Wind Speed Wind Dir Waves Ship Positions

Kaleetan

Owner: WASHINGTON, STATE OF; Department of Transportation, OLYMPIA, WA. More information available from US FCC via Universal Licensing System and Coast Guard Vessel Documentation Center.

Last reported at 2018-Feb-19 14:00 UTC. Time now 2018-Feb-19 14:07 UTC.
Position N 47°36' W 122°20'.

Length 116 m; draft 5.6 m.

Type: Passenger vessel. MMSI: 366772990.

Date/timePositionNaut miles runAvg speedWind from/ knotsBaromVisibWave heightAir tempDewpointWater temp
2018-Feb-19 14:00N 47°36' W 122°20'4 7.4
2018-Feb-19 13:30N 47°35' W 122°26'612.6
2018-Feb-19 13:00N 47°35' W 122°35'2 3.8
2018-Feb-19 12:30N 47°34' W 122°37'0 0.0
2018-Feb-19 12:00N 47°34' W 122°37'0 0.0
2018-Feb-19 11:30N 47°34' W 122°37'0 0.0
2018-Feb-19 11:00N 47°34' W 122°37'0 0.0
2018-Feb-19 10:30N 47°34' W 122°37'0 0.0
2018-Feb-19 10:00N 47°34' W 122°37'0 0.0
2018-Feb-19 09:30N 47°34' W 122°37'0 0.0
2018-Feb-19 09:00N 47°34' W 122°37'0 0.0
2018-Feb-19 08:29N 47°34' W 122°37'0 0.0
2018-Feb-19 08:01N 47°34' W 122°37'0 0.0
2018-Feb-19 07:31N 47°34' W 122°37'0 0.0
2018-Feb-19 07:00N 47°34' W 122°37'0 0.0
2018-Feb-19 06:30N 47°34' W 122°37'0 0.4
2018-Feb-19 06:01N 47°34' W 122°37'611.5
2018-Feb-19 05:31N 47°35' W 122°29'611.6
2018-Feb-19 05:00N 47°36' W 122°20'612.5
2018-Feb-19 04:31N 47°34' W 122°29'611.1
2018-Feb-19 03:59N 47°34' W 122°38'3 6.8
2018-Feb-19 03:30N 47°36' W 122°33'713.3
2018-Feb-19 03:01N 47°36' W 122°24'2 4.1
2018-Feb-19 02:28N 47°36' W 122°20'614.1
2018-Feb-19 02:00N 47°34' W 122°29'510.8
2018-Feb-19 01:30N 47°34' W 122°38'2 4.0
2018-Feb-19 01:00N 47°35' W 122°35'713.2
2018-Feb-19 00:30N 47°36' W 122°25'3 6.7
2018-Feb-19 00:00N 47°36' W 122°20'713.0
2018-Feb-18 23:30N 47°34' W 122°30'510.4
2018-Feb-18 23:00N 47°34' W 122°38'0 0.0
2018-Feb-18 22:30N 47°34' W 122°38'5 9.4
2018-Feb-18 22:00N 47°34' W 122°31'713.9
2018-Feb-18 21:29N 47°36' W 122°20'4 7.3
2018-Feb-18 21:00N 47°36' W 122°26'713.1
2018-Feb-18 20:30N 47°35' W 122°35'1 2.0
2018-Feb-18 20:00N 47°34' W 122°36'612.4
2018-Feb-18 19:31N 47°35' W 122°27'5 8.6
2018-Feb-18 18:57N 47°36' W 122°20'3 6.7
2018-Feb-18 18:30N 47°36' W 122°25'714.0
2018-Feb-18 18:00N 47°35' W 122°35'2 4.0
2018-Feb-18 17:31N 47°34' W 122°38'510.8
2018-Feb-18 17:01N 47°34' W 122°30'611.8
2018-Feb-18 16:28N 47°36' W 122°20'3 6.5
2018-Feb-18 16:00N 47°36' W 122°25'713.9
2018-Feb-18 15:30N 47°35' W 122°35'2 3.8
2018-Feb-18 14:59N 47°34' W 122°38'510.0
2018-Feb-18 14:30N 47°34' W 122°30'712.3
2018-Feb-18 13:56N 47°36' W 122°20'1 1.4
2018-Feb-18 13:30N 47°36' W 122°21'815.2
2018-Feb-18 13:00N 47°35' W 122°32'4 7.1
2018-Feb-18 12:30N 47°34' W 122°37'0 0.0
2018-Feb-18 11:59N 47°34' W 122°37'0 0.0
2018-Feb-18 11:30N 47°34' W 122°37'0 0.0
2018-Feb-18 11:00N 47°34' W 122°37'0 0.0
2018-Feb-18 10:30N 47°34' W 122°37'0 0.0
2018-Feb-18 10:00N 47°34' W 122°37'0 0.0
2018-Feb-18 09:30N 47°34' W 122°37'0 0.0
2018-Feb-18 09:00N 47°34' W 122°37'0 0.0
2018-Feb-18 08:30N 47°34' W 122°37'0 0.0
2018-Feb-18 08:00N 47°34' W 122°37'0 0.0
2018-Feb-18 07:31N 47°34' W 122°37'0 0.0
2018-Feb-18 07:01N 47°34' W 122°37'0 0.0
2018-Feb-18 06:30N 47°34' W 122°37'0 0.3
2018-Feb-18 06:00N 47°34' W 122°37'510.8
2018-Feb-18 05:30N 47°34' W 122°29'6 8.9
2018-Feb-18 04:48N 47°36' W 122°21'413.3
2018-Feb-18 04:30N 47°35' W 122°26'814.0
2018-Feb-18 03:58N 47°34' W 122°37'2 3.6
2018-Feb-18 03:30N 47°35' W 122°35'612.9
2018-Feb-18 03:00N 47°35' W 122°26'4 7.2
2018-Feb-18 02:30N 47°36' W 122°20'612.5
2018-Feb-18 02:01N 47°34' W 122°29'611.4
2018-Feb-18 01:30N 47°34' W 122°38'2 3.1
2018-Feb-18 01:00N 47°34' W 122°35'713.4
2018-Feb-18 00:30N 47°35' W 122°26'4 7.2
2018-Feb-18 00:00N 47°36' W 122°20'612.2
2018-Feb-17 23:30N 47°34' W 122°29'611.5
2018-Feb-17 23:00N 47°34' W 122°38'0 0.0
2018-Feb-17 22:30N 47°34' W 122°38'5 9.5
2018-Feb-17 22:01N 47°34' W 122°31'714.1
2018-Feb-17 21:30N 47°36' W 122°20'4 7.5
2018-Feb-17 21:00N 47°35' W 122°26'713.6
2018-Feb-17 20:30N 47°34' W 122°36'0 0.7
2018-Feb-17 19:59N 47°34' W 122°35'612.1
2018-Feb-17 19:31N 47°35' W 122°27'4 8.8
2018-Feb-17 19:00N 47°36' W 122°20'3 6.1
2018-Feb-17 18:31N 47°36' W 122°25'714.0
2018-Feb-17 18:00N 47°35' W 122°35'2 3.5
2018-Feb-17 17:30N 47°33' W 122°37'510.7
2018-Feb-17 17:01N 47°34' W 122°29'612.4
2018-Feb-17 16:30N 47°36' W 122°20'3 6.7
2018-Feb-17 16:00N 47°36' W 122°25'713.6
2018-Feb-17 15:30N 47°35' W 122°35'2 3.5
2018-Feb-17 15:00N 47°34' W 122°38'510.5
2018-Feb-17 14:30N 47°34' W 122°30'713.0
2018-Feb-17 14:00N 47°36' W 122°20'3 6.1
2018-Feb-17 13:31N 47°36' W 122°25'713.8
2018-Feb-17 13:00N 47°35' W 122°35'2 4.1
2018-Feb-17 12:31N 47°34' W 122°37'0 0.0
2018-Feb-17 11:58N 47°34' W 122°37'0 0.0
2018-Feb-17 11:30N 47°34' W 122°37'0 0.0
2018-Feb-17 11:00N 47°34' W 122°37'0 0.0
2018-Feb-17 10:30N 47°34' W 122°37'0 0.0
2018-Feb-17 10:00N 47°34' W 122°37'0 0.0
2018-Feb-17 09:29N 47°34' W 122°37'0 0.0
2018-Feb-17 09:00N 47°34' W 122°37'0 0.0
2018-Feb-17 08:29N 47°34' W 122°37'0 0.0
2018-Feb-17 08:00N 47°34' W 122°37'0 0.0
2018-Feb-17 07:30N 47°34' W 122°37'0 0.0
2018-Feb-17 07:00N 47°34' W 122°37'0 0.0
2018-Feb-17 06:30N 47°34' W 122°37'0 0.0
2018-Feb-17 06:00N 47°34' W 122°37'510.9
2018-Feb-17 05:30N 47°34' W 122°29'612.3
2018-Feb-17 04:59N 47°36' W 122°20'4 9.3
2018-Feb-17 04:30N 47°35' W 122°27'713.6
2018-Feb-17 03:58N 47°34' W 122°37'2 5.2
2018-Feb-17 03:30N 47°35' W 122°35'612.9
2018-Feb-17 03:01N 47°36' W 122°25'3 6.2
2018-Feb-17 02:30N 47°36' W 122°20'611.8
2018-Feb-17 02:01N 47°35' W 122°29'611.9
2018-Feb-17 01:30N 47°34' W 122°38'2 3.8
2018-Feb-17 01:00N 47°35' W 122°35'713.9
2018-Feb-17 00:30N 47°36' W 122°25'3 6.2
2018-Feb-17 00:00N 47°36' W 122°20'612.5
2018-Feb-16 23:30N 47°34' W 122°29'610.9
2018-Feb-16 22:59N 47°34' W 122°38'0 0.0
2018-Feb-16 22:30N 47°34' W 122°38'4 8.0
2018-Feb-16 22:01N 47°34' W 122°32'815.6
2018-Feb-16 21:30N 47°36' W 122°20'4 7.6
2018-Feb-16 21:00N 47°35' W 122°26'713.5
2018-Feb-16 20:30N 47°34' W 122°36'0 0.1
2018-Feb-16 20:00N 47°34' W 122°36'612.0
2018-Feb-16 19:30N 47°35' W 122°27'5 8.7
2018-Feb-16 18:59N 47°36' W 122°20'3 6.3
2018-Feb-16 18:30N 47°36' W 122°25'714.1
2018-Feb-16 18:00N 47°35' W 122°35'2 3.9
2018-Feb-16 17:30N 47°33' W 122°37'611.4
2018-Feb-16 17:00N 47°34' W 122°29'610.1
2018-Feb-16 16:25N 47°36' W 122°20'3 7.3
2018-Feb-16 16:00N 47°36' W 122°25'713.9
2018-Feb-16 15:30N 47°35' W 122°35'2 4.1
2018-Feb-16 15:00N 47°34' W 122°38'510.7
2018-Feb-16 14:31N 47°34' W 122°30'713.1
2018-Feb-16 14:00N 47°36' W 122°20'3 6.6
2018-Feb-16 13:30N 47°36' W 122°25'713.3
2018-Feb-16 13:00N 47°35' W 122°35'2 3.6
2018-Feb-16 12:30N 47°34' W 122°37'0 0.0
2018-Feb-16 12:01N 47°34' W 122°37'0 0.0
2018-Feb-16 11:30N 47°34' W 122°37'0 0.0
2018-Feb-16 11:00N 47°34' W 122°37'0 0.0
2018-Feb-16 10:31N 47°34' W 122°37'0 0.0
2018-Feb-16 10:01N 47°34' W 122°37'4 7.1
2018-Feb-16 09:31N 47°36' W 122°33'714.6
2018-Feb-16 09:01N 47°36' W 122°22'2 4.7
2018-Feb-16 08:30N 47°35' W 122°26'713.3
2018-Feb-16 08:00N 47°34' W 122°35'2 3.1
2018-Feb-16 07:30N 47°34' W 122°37'0 0.0
2018-Feb-16 07:00N 47°34' W 122°37'0 0.0
2018-Feb-16 06:31N 47°34' W 122°37'0 0.4
2018-Feb-16 06:00N 47°34' W 122°37'611.3
2018-Feb-16 05:30N 47°35' W 122°29'610.1
2018-Feb-16 04:55N 47°36' W 122°20'511.3
2018-Feb-16 04:30N 47°35' W 122°27'713.0
2018-Feb-16 03:59N 47°33' W 122°37'2 4.1
2018-Feb-16 03:30N 47°35' W 122°35'612.8
2018-Feb-16 03:00N 47°35' W 122°25'4 6.6
2018-Feb-16 02:29N 47°36' W 122°20'612.6
2018-Feb-16 02:00N 47°34' W 122°29'611.8
2018-Feb-16 01:30N 47°34' W 122°38'3 5.2
2018-Feb-16 01:00N 47°35' W 122°34'713.7
2018-Feb-16 00:30N 47°36' W 122°24'3 5.2
2018-Feb-16 00:00N 47°36' W 122°20'613.0
2018-Feb-15 23:31N 47°34' W 122°29'510.9
2018-Feb-15 23:00N 47°34' W 122°38'0 0.0
2018-Feb-15 22:29N 47°34' W 122°38'4 8.4
2018-Feb-15 22:00N 47°34' W 122°32'815.4
2018-Feb-15 21:30N 47°36' W 122°20'3 6.5
2018-Feb-15 21:01N 47°36' W 122°25'713.3
2018-Feb-15 20:30N 47°35' W 122°35'1 2.7
2018-Feb-15 20:00N 47°34' W 122°36'612.4
2018-Feb-15 19:30N 47°35' W 122°27'5 9.4
2018-Feb-15 19:00N 47°36' W 122°20'3 6.0
2018-Feb-15 18:31N 47°36' W 122°25'713.7
2018-Feb-15 18:00N 47°35' W 122°35'2 4.3
2018-Feb-15 17:30N 47°34' W 122°37'510.6
2018-Feb-15 17:00N 47°34' W 122°30'712.9
2018-Feb-15 16:30N 47°36' W 122°20'3 6.3
2018-Feb-15 16:00N 47°36' W 122°25'713.9
2018-Feb-15 15:30N 47°35' W 122°35'2 3.7
2018-Feb-15 15:00N 47°34' W 122°38'510.7
2018-Feb-15 14:30N 47°34' W 122°30'612.9
2018-Feb-15 14:00N 47°36' W 122°20'4 7.2
2018-Feb-15 13:30N 47°35' W 122°26'612.9
2018-Feb-15 13:00N 47°35' W 122°35'2 3.1
2018-Feb-15 12:24N 47°34' W 122°37'0 0.0
2018-Feb-15 12:00N 47°34' W 122°37'0 0.0
2018-Feb-15 11:30N 47°34' W 122°37'0 0.0
2018-Feb-15 11:00N 47°34' W 122°37'0 0.0
2018-Feb-15 10:30N 47°34' W 122°37'0 0.0
2018-Feb-15 10:00N 47°34' W 122°37'3 6.1
2018-Feb-15 09:30N 47°35' W 122°34'714.8
2018-Feb-15 09:00N 47°36' W 122°23'2 3.2
2018-Feb-15 08:30N 47°36' W 122°25'713.2
2018-Feb-15 08:00N 47°35' W 122°35'2 4.5
2018-Feb-15 07:31N 47°34' W 122°37'0 0.0
2018-Feb-15 07:01N 47°34' W 122°37'0 0.0
2018-Feb-15 06:30N 47°34' W 122°37'0 0.0
2018-Feb-15 06:01N 47°34' W 122°37'510.7
2018-Feb-15 05:30N 47°34' W 122°30'612.7
2018-Feb-15 05:00N 47°36' W 122°20'4 8.6
2018-Feb-15 04:30N 47°35' W 122°27'713.7
2018-Feb-15 03:59N 47°33' W 122°37'2 3.8
2018-Feb-15 03:30N 47°35' W 122°35'612.7
2018-Feb-15 03:01N 47°35' W 122°26'4 7.3
2018-Feb-15 02:31N 47°36' W 122°20'612.2
2018-Feb-15 02:00N 47°34' W 122°29'611.6
2018-Feb-15 01:30N 47°34' W 122°38'2 3.4
2018-Feb-15 01:00N 47°34' W 122°35'713.6
2018-Feb-15 00:30N 47°35' W 122°25'3 6.6
2018-Feb-15 00:00N 47°36' W 122°20'612.4
2018-Feb-14 23:30N 47°34' W 122°29'611.4
2018-Feb-14 23:00N 47°34' W 122°38'0 0.0
2018-Feb-14 22:30N 47°34' W 122°38'4 7.7
2018-Feb-14 22:00N 47°34' W 122°32'815.9
2018-Feb-14 21:30N 47°36' W 122°20'3 7.0
2018-Feb-14 21:01N 47°35' W 122°25'712.9
2018-Feb-14 20:30N 47°35' W 122°35'1 1.8
2018-Feb-14 20:00N 47°34' W 122°36'713.2
2018-Feb-14 19:30N 47°35' W 122°27'4 8.3
2018-Feb-14 19:00N 47°36' W 122°20'3 6.8
2018-Feb-14 18:30N 47°36' W 122°25'713.5
2018-Feb-14 18:00N 47°34' W 122°35'2 3.4
2018-Feb-14 17:31N 47°34' W 122°37'611.4
2018-Feb-14 17:00N 47°34' W 122°29'611.9
2018-Feb-14 16:30N 47°36' W 122°20'3 5.9
2018-Feb-14 16:00N 47°36' W 122°25'714.0
2018-Feb-14 15:30N 47°35' W 122°35'2 4.2
2018-Feb-14 15:01N 47°34' W 122°38'611.1
2018-Feb-14 14:31N 47°34' W 122°29'612.4
2018-Feb-14 14:00N 47°36' W 122°20'3 6.9
2018-Feb-14 13:31N 47°36' W 122°25'713.1
2018-Feb-14 13:00N 47°35' W 122°35'2 3.8
2018-Feb-14 12:30N 47°34' W 122°37'0 0.0
2018-Feb-14 11:59N 47°34' W 122°37'0 0.0
2018-Feb-14 11:30N 47°34' W 122°37'0 0.0
2018-Feb-14 11:00N 47°34' W 122°37'0 0.0
2018-Feb-14 10:30N 47°34' W 122°37'0 0.0
2018-Feb-14 10:00N 47°34' W 122°37'4 7.5
2018-Feb-14 09:31N 47°35' W 122°32'714.9
2018-Feb-14 09:00N 47°36' W 122°21'3 6.6
2018-Feb-14 08:30N 47°35' W 122°26'612.6
2018-Feb-14 08:00N 47°34' W 122°35'2 3.1
2018-Feb-14 07:30N 47°34' W 122°37'0 0.0
2018-Feb-14 07:00N 47°34' W 122°37'0 0.0
2018-Feb-14 06:30N 47°34' W 122°37'0 0.0
2018-Feb-14 06:00N 47°34' W 122°37'510.8
2018-Feb-14 05:31N 47°34' W 122°30'611.4
2018-Feb-14 04:57N 47°36' W 122°20'4 9.9
2018-Feb-14 04:30N 47°35' W 122°27'713.5
2018-Feb-14 04:00N 47°34' W 122°37'2 3.1
2018-Feb-14 03:30N 47°35' W 122°35'612.9
2018-Feb-14 03:00N 47°35' W 122°26'4 6.7
2018-Feb-14 02:28N 47°36' W 122°20'612.5
2018-Feb-14 02:01N 47°34' W 122°29'612.0
2018-Feb-14 01:30N 47°34' W 122°38'2 3.6
2018-Feb-14 01:00N 47°35' W 122°35'713.5
2018-Feb-14 00:30N 47°36' W 122°25'3 6.4
2018-Feb-13 23:59N 47°36' W 122°20'613.8
2018-Feb-13 23:30N 47°34' W 122°30'510.4
2018-Feb-13 22:59N 47°34' W 122°38'0 0.0
2018-Feb-13 22:29N 47°34' W 122°38'4 8.9
2018-Feb-13 22:00N 47°34' W 122°31'814.9
2018-Feb-13 21:30N 47°36' W 122°20'510.9
2018-Feb-13 21:00N 47°35' W 122°28'612.7
2018-Feb-13 20:30N 47°34' W 122°37'4 7.2
2018-Feb-13 20:00N 47°36' W 122°33'4 7.5
2018-Feb-13 19:30N 47°35' W 122°27'5 9.8
2018-Feb-13 19:00N 47°36' W 122°20'3 6.9
2018-Feb-13 18:30N 47°36' W 122°25'713.2
2018-Feb-13 18:00N 47°35' W 122°35'0 0.9
2018-Feb-13 17:30N 47°34' W 122°36'4 8.7
2018-Feb-13 17:00N 47°34' W 122°29'611.7
2018-Feb-13 16:29N 47°36' W 122°20'3 6.9
2018-Feb-13 16:00N 47°36' W 122°25'713.5
2018-Feb-13 15:30N 47°35' W 122°35'2 3.7
2018-Feb-13 15:01N 47°34' W 122°37'5 9.9
2018-Feb-13 14:30N 47°34' W 122°30'713.7
2018-Feb-13 14:00N 47°36' W 122°20'4 7.5
2018-Feb-13 13:30N 47°35' W 122°26'713.2
2018-Feb-13 13:00N 47°34' W 122°36'1 2.6
2018-Feb-13 12:30N 47°34' W 122°37'0 0.0
2018-Feb-13 12:00N 47°34' W 122°37'0 0.0
2018-Feb-13 11:30N 47°34' W 122°37'0 0.0
2018-Feb-13 11:00N 47°34' W 122°37'0 0.0
2018-Feb-13 10:30N 47°34' W 122°37'0 0.0
2018-Feb-13 09:59N 47°34' W 122°37'2 4.4
2018-Feb-13 09:30N 47°35' W 122°35'715.0
2018-Feb-13 09:00N 47°36' W 122°24'1 1.4
2018-Feb-13 08:30N 47°36' W 122°23'713.3
2018-Feb-13 08:00N 47°35' W 122°33'4 7.2
2018-Feb-13 07:30N 47°34' W 122°37'0 0.0
2018-Feb-13 07:00N 47°34' W 122°37'0 0.0
2018-Feb-13 06:29N 47°34' W 122°37'0 0.0
2018-Feb-13 06:00N 47°34' W 122°37'510.6
2018-Feb-13 05:31N 47°34' W 122°30'7 9.8
2018-Feb-13 04:50N 47°36' W 122°20'412.8
2018-Feb-13 04:31N 47°35' W 122°27'713.7
2018-Feb-13 04:00N 47°34' W 122°37'1 3.0
2018-Feb-13 03:30N 47°35' W 122°35'612.9
2018-Feb-13 03:00N 47°35' W 122°26'4 7.2
2018-Feb-13 02:30N 47°36' W 122°20'612.3
2018-Feb-13 02:00N 47°34' W 122°29'611.5
2018-Feb-13 01:30N 47°34' W 122°38'2 3.6
2018-Feb-13 01:00N 47°35' W 122°35'713.0
2018-Feb-13 00:30N 47°35' W 122°26'4 7.2
2018-Feb-13 00:00N 47°36' W 122°20'612.6
2018-Feb-12 23:31N 47°34' W 122°29'611.2
2018-Feb-12 23:00N 47°34' W 122°38'0 0.0
2018-Feb-12 22:30N 47°34' W 122°38'4 8.1
2018-Feb-12 22:01N 47°34' W 122°32'815.1
2018-Feb-12 21:30N 47°36' W 122°20'3 6.7
2018-Feb-12 21:00N 47°35' W 122°25'713.5
2018-Feb-12 20:30N 47°35' W 122°35'1 1.7
2018-Feb-12 19:57N 47°34' W 122°36'613.2
2018-Feb-12 19:30N 47°35' W 122°27'5 9.7
2018-Feb-12 19:00N 47°36' W 122°20'4 7.5
2018-Feb-12 18:31N 47°35' W 122°26'612.8
2018-Feb-12 18:00N 47°34' W 122°35'2 3.4
2018-Feb-12 17:30N 47°34' W 122°38'510.7
2018-Feb-12 17:00N 47°34' W 122°30'711.5
2018-Feb-12 16:26N 47°36' W 122°20'4 8.2
2018-Feb-12 16:00N 47°35' W 122°25'713.1
2018-Feb-12 15:30N 47°35' W 122°35'2 3.5
2018-Feb-12 15:00N 47°34' W 122°37'4 8.9
2018-Feb-12 14:30N 47°34' W 122°31'714.8
2018-Feb-12 14:00N 47°36' W 122°20'3 6.5
2018-Feb-12 13:30N 47°36' W 122°25'713.6
2018-Feb-12 13:01N 47°35' W 122°35'2 3.7
2018-Feb-12 12:30N 47°34' W 122°37'0 0.0
2018-Feb-12 12:00N 47°34' W 122°37'0 0.0
2018-Feb-12 11:31N 47°34' W 122°37'0 0.0
2018-Feb-12 11:00N 47°34' W 122°37'0 0.0
2018-Feb-12 10:29N 47°34' W 122°37'0 0.0
2018-Feb-12 10:00N 47°34' W 122°37'3 5.2
2018-Feb-12 09:30N 47°35' W 122°34'714.6
2018-Feb-12 09:00N 47°36' W 122°24'1 1.9
2018-Feb-12 08:30N 47°36' W 122°22'714.1
2018-Feb-12 08:00N 47°35' W 122°33'4 7.1
2018-Feb-12 07:31N 47°34' W 122°37'4 7.9
2018-Feb-12 07:00N 47°34' W 122°32'814.6
2018-Feb-12 06:28N 47°36' W 122°20'0 0.0
2018-Feb-12 06:00N 47°36' W 122°20'612.6
2018-Feb-12 05:31N 47°34' W 122°29'610.6
2018-Feb-12 04:59N 47°34' W 122°38'3 7.4
2018-Feb-12 04:30N 47°36' W 122°33'713.4
2018-Feb-12 04:01N 47°36' W 122°23'1 2.6
2018-Feb-12 03:30N 47°36' W 122°21'815.1
2018-Feb-12 03:00N 47°35' W 122°33'4 7.2
2018-Feb-12 02:30N 47°34' W 122°38'4 8.3
2018-Feb-12 02:00N 47°34' W 122°31'814.9
2018-Feb-12 01:30N 47°36' W 122°20'2 4.7
2018-Feb-12 01:00N 47°36' W 122°24'713.4
2018-Feb-12 00:30N 47°35' W 122°34'3 6.0
2018-Feb-12 00:00N 47°34' W 122°38'4 7.4
2018-Feb-11 23:31N 47°35' W 122°32'815.4
2018-Feb-11 23:00N 47°36' W 122°21'2 3.5
2018-Feb-11 22:30N 47°36' W 122°24'713.9
2018-Feb-11 21:59N 47°35' W 122°34'3 5.4
2018-Feb-11 21:31N 47°34' W 122°38'4 7.8
2018-Feb-11 21:00N 47°34' W 122°32'815.7
2018-Feb-11 20:30N 47°36' W 122°21'2 3.8
2018-Feb-11 20:00N 47°36' W 122°23'713.3
2018-Feb-11 19:31N 47°36' W 122°33'3 6.8
2018-Feb-11 19:00N 47°34' W 122°38'611.5
2018-Feb-11 18:30N 47°34' W 122°29'612.0
2018-Feb-11 17:59N 47°36' W 122°20'2 4.5
2018-Feb-11 17:30N 47°36' W 122°24'713.6
2018-Feb-11 16:58N 47°35' W 122°35'2 5.1
2018-Feb-11 16:30N 47°34' W 122°38'510.3
2018-Feb-11 16:00N 47°34' W 122°30'712.6
2018-Feb-11 15:28N 47°36' W 122°20'3 7.4
2018-Feb-11 15:00N 47°35' W 122°25'713.5
2018-Feb-11 14:30N 47°34' W 122°36'1 2.9
2018-Feb-11 14:00N 47°34' W 122°37'0 0.0
2018-Feb-11 13:25N 47°34' W 122°37'0 0.0
2018-Feb-11 12:54N 47°34' W 122°37'0 0.0
2018-Feb-11 12:21N 47°34' W 122°37'0 0.0
2018-Feb-11 11:58N 47°34' W 122°37'0 0.0
2018-Feb-11 11:29N 47°34' W 122°37'0 0.0
2018-Feb-11 11:00N 47°34' W 122°37'0 0.0
2018-Feb-11 10:30N 47°34' W 122°37'0 0.0
2018-Feb-11 10:00N 47°34' W 122°37'0 0.0
2018-Feb-11 09:30N 47°34' W 122°37'0 0.0
2018-Feb-11 09:00N 47°34' W 122°37'0 0.0
2018-Feb-11 08:30N 47°34' W 122°37'0 0.0
2018-Feb-11 07:59N 47°34' W 122°37'0 0.0
2018-Feb-11 07:30N 47°34' W 122°37'0 0.0
2018-Feb-11 06:58N 47°34' W 122°37'0 0.0
2018-Feb-11 06:29N 47°34' W 122°37'0 0.0
2018-Feb-11 06:00N 47°34' W 122°37'612.0
2018-Feb-11 05:30N 47°35' W 122°29'611.4
2018-Feb-11 05:00N 47°36' W 122°20'5 9.5
2018-Feb-11 04:30N 47°35' W 122°27'712.8
2018-Feb-11 03:59N 47°34' W 122°37'1 2.7
2018-Feb-11 03:30N 47°34' W 122°35'713.7
2018-Feb-11 03:00N 47°36' W 122°25'3 6.5
2018-Feb-11 02:30N 47°36' W 122°20'612.9
2018-Feb-11 02:00N 47°34' W 122°29'610.6
2018-Feb-11 01:29N 47°34' W 122°38'2 4.4
2018-Feb-11 01:00N 47°35' W 122°35'612.9
2018-Feb-11 00:30N 47°36' W 122°25'3 6.8
2018-Feb-11 00:00N 47°36' W 122°20'612.5
2018-Feb-10 23:30N 47°34' W 122°29'611.3
2018-Feb-10 23:00N 47°34' W 122°38'0 0.0
2018-Feb-10 22:30N 47°34' W 122°38'4 8.5
2018-Feb-10 22:00N 47°34' W 122°31'814.0
2018-Feb-10 21:28N 47°36' W 122°20'4 7.8
2018-Feb-10 21:00N 47°35' W 122°25'713.4
2018-Feb-10 20:30N 47°34' W 122°36'0 0.5
2018-Feb-10 19:57N 47°35' W 122°35'612.7
2018-Feb-10 19:30N 47°35' W 122°27'4 7.6
2018-Feb-10 18:55N 47°36' W 122°20'4 8.6
2018-Feb-10 18:31N 47°35' W 122°26'713.1
2018-Feb-10 18:00N 47°34' W 122°35'2 3.0
2018-Feb-10 17:29N 47°34' W 122°37'510.9
2018-Feb-10 17:01N 47°34' W 122°30'7 9.3
2018-Feb-10 16:18N 47°36' W 122°20'413.2
2018-Feb-10 16:00N 47°35' W 122°26'713.4
2018-Feb-10 15:27N 47°33' W 122°37'1 1.2
2018-Feb-10 14:58N 47°34' W 122°38'4 9.4
2018-Feb-10 14:31N 47°34' W 122°31'7 9.5
2018-Feb-10 13:44N 47°36' W 122°21'315.3
2018-Feb-10 13:30N 47°36' W 122°25'713.1
2018-Feb-10 12:58N 47°34' W 122°36'1 2.5
2018-Feb-10 12:27N 47°34' W 122°37'0 0.0
2018-Feb-10 11:55N 47°34' W 122°37'0 0.0
2018-Feb-10 11:30N 47°34' W 122°37'0 0.0
2018-Feb-10 11:00N 47°34' W 122°37'0 0.0
2018-Feb-10 10:30N 47°34' W 122°37'0 0.0
2018-Feb-10 10:00N 47°34' W 122°37'0 0.0
2018-Feb-10 09:18N 47°34' W 122°37'0 0.0
2018-Feb-10 09:00N 47°34' W 122°37'0 0.0
2018-Feb-10 08:30N 47°34' W 122°37'0 0.0
2018-Feb-10 07:58N 47°34' W 122°37'0 0.0
2018-Feb-10 07:29N 47°34' W 122°37'0 0.0
2018-Feb-10 07:00N 47°34' W 122°37'0 0.0
2018-Feb-10 06:30N 47°34' W 122°37'0 0.0
2018-Feb-10 06:00N 47°34' W 122°37'510.7
2018-Feb-10 05:30N 47°34' W 122°30'710.8
2018-Feb-10 04:54N 47°36' W 122°20'511.8
2018-Feb-10 04:31N 47°35' W 122°27'612.6
2018-Feb-10 03:59N 47°34' W 122°36'1 1.8
2018-Feb-10 03:30N 47°34' W 122°36'713.8
2018-Feb-10 03:00N 47°35' W 122°26'4 6.7
2018-Feb-10 02:28N 47°36' W 122°20'612.2
2018-Feb-10 02:01N 47°34' W 122°28'612.1
2018-Feb-10 01:29N 47°34' W 122°38'2 3.1
2018-Feb-10 01:00N 47°34' W 122°35'613.1
2018-Feb-10 00:30N 47°35' W 122°26'4 7.6
2018-Feb-10 00:00N 47°36' W 122°20'611.8
2018-Feb-09 23:30N 47°34' W 122°29'611.7
2018-Feb-09 23:00N 47°34' W 122°38'0 0.0
2018-Feb-09 22:45N 47°34' W 122°38'0 0.0
2018-Feb-09 22:30N 47°34' W 122°38'9 5.8
2018-Feb-09 21:01N 47°36' W 122°25'0 0.1
2018-Feb-09 18:30N 47°36' W 122°25'713.1
2018-Feb-09 18:01N 47°35' W 122°35'0 0.1
2018-Feb-09 15:30N 47°35' W 122°35'2 3.6
2018-Feb-09 15:00N 47°34' W 122°38'4 8.8
2018-Feb-09 14:30N 47°34' W 122°31'  

Dump ship's entire track history